sensor_id;sensor_type;location;lat;lon;timestamp;temperature;humidity
10192;DHT22;17580;50.850;4.504;2023-06-22T00:00:49;20.90;31.50
10192;DHT22;17580;50.850;4.504;2023-06-22T00:03:17;20.90;31.00
10192;DHT22;17580;50.850;4.504;2023-06-22T00:05:45;20.90;31.10
10192;DHT22;17580;50.850;4.504;2023-06-22T00:08:13;20.80;32.00
10192;DHT22;17580;50.850;4.504;2023-06-22T00:10:40;20.90;33.50
10192;DHT22;17580;50.850;4.504;2023-06-22T00:13:08;20.80;31.50
10192;DHT22;17580;50.850;4.504;2023-06-22T00:15:38;20.80;31.50
10192;DHT22;17580;50.850;4.504;2023-06-22T00:18:06;20.70;33.80
10192;DHT22;17580;50.850;4.504;2023-06-22T00:20:33;20.80;35.10
10192;DHT22;17580;50.850;4.504;2023-06-22T00:23:03;20.70;34.50
10192;DHT22;17580;50.850;4.504;2023-06-22T00:25:34;20.60;33.90
10192;DHT22;17580;50.850;4.504;2023-06-22T00:28:01;20.60;34.60
10192;DHT22;17580;50.850;4.504;2023-06-22T00:30:29;20.50;34.80
10192;DHT22;17580;50.850;4.504;2023-06-22T00:32:58;20.50;35.90
10192;DHT22;17580;50.850;4.504;2023-06-22T00:35:25;20.50;36.70
10192;DHT22;17580;50.850;4.504;2023-06-22T00:37:55;20.40;35.30
10192;DHT22;17580;50.850;4.504;2023-06-22T00:40:26;20.40;34.70
10192;DHT22;17580;50.850;4.504;2023-06-22T00:42:54;20.40;34.30
10192;DHT22;17580;50.850;4.504;2023-06-22T00:45:21;20.40;36.10
10192;DHT22;17580;50.850;4.504;2023-06-22T00:47:50;20.40;34.80
10192;DHT22;17580;50.850;4.504;2023-06-22T00:50:22;20.50;35.00
10192;DHT22;17580;50.850;4.504;2023-06-22T00:52:51;20.50;34.70
10192;DHT22;17580;50.850;4.504;2023-06-22T00:55:19;20.50;35.00
10192;DHT22;17580;50.850;4.504;2023-06-22T00:57:46;20.50;36.00
10192;DHT22;17580;50.850;4.504;2023-06-22T01:00:14;20.60;35.90
10192;DHT22;17580;50.850;4.504;2023-06-22T01:02:45;20.60;36.70
10192;DHT22;17580;50.850;4.504;2023-06-22T01:05:13;20.60;35.40
10192;DHT22;17580;50.850;4.504;2023-06-22T01:07:51;20.60;34.20
10192;DHT22;17580;50.850;4.504;2023-06-22T01:10:27;20.60;34.00
10192;DHT22;17580;50.850;4.504;2023-06-22T01:12:59;20.60;33.20
10192;DHT22;17580;50.850;4.504;2023-06-22T01:15:33;20.60;33.30
10192;DHT22;17580;50.850;4.504;2023-06-22T01:18:04;20.60;33.00
10192;DHT22;17580;50.850;4.504;2023-06-22T01:20:32;20.50;33.20
10192;DHT22;17580;50.850;4.504;2023-06-22T01:23:09;20.50;33.10
10192;DHT22;17580;50.850;4.504;2023-06-22T01:25:46;20.40;32.60
10192;DHT22;17580;50.850;4.504;2023-06-22T01:28:32;20.40;32.60
10192;DHT22;17580;50.850;4.504;2023-06-22T01:31:00;20.40;32.60
10192;DHT22;17580;50.850;4.504;2023-06-22T01:33:34;20.40;34.40
10192;DHT22;17580;50.850;4.504;2023-06-22T01:36:02;20.40;34.40
10192;DHT22;17580;50.850;4.504;2023-06-22T01:38:29;20.30;33.70
10192;DHT22;17580;50.850;4.504;2023-06-22T01:40:57;20.20;35.30
10192;DHT22;17580;50.850;4.504;2023-06-22T01:43:26;20.20;34.30
10192;DHT22;17580;50.850;4.504;2023-06-22T01:45:56;20.20;35.00
10192;DHT22;17580;50.850;4.504;2023-06-22T01:48:24;20.20;35.20
10192;DHT22;17580;50.850;4.504;2023-06-22T01:50:52;20.10;34.10
10192;DHT22;17580;50.850;4.504;2023-06-22T01:53:21;20.00;33.80
10192;DHT22;17580;50.850;4.504;2023-06-22T01:55:48;20.00;34.60
10192;DHT22;17580;50.850;4.504;2023-06-22T01:58:15;20.00;34.80
10192;DHT22;17580;50.850;4.504;2023-06-22T02:00:48;19.90;34.50
10192;DHT22;17580;50.850;4.504;2023-06-22T02:03:21;19.80;34.90
10192;DHT22;17580;50.850;4.504;2023-06-22T02:05:51;19.70;35.10
10192;DHT22;17580;50.850;4.504;2023-06-22T02:08:21;19.70;35.80
10192;DHT22;17580;50.850;4.504;2023-06-22T02:10:50;19.70;35.80
10192;DHT22;17580;50.850;4.504;2023-06-22T02:13:18;19.70;35.80
10192;DHT22;17580;50.850;4.504;2023-06-22T02:15:46;19.70;36.70
10192;DHT22;17580;50.850;4.504;2023-06-22T02:18:14;19.70;36.30
10192;DHT22;17580;50.850;4.504;2023-06-22T02:20:42;19.50;36.30
10192;DHT22;17580;50.850;4.504;2023-06-22T02:23:09;19.40;36.80
10192;DHT22;17580;50.850;4.504;2023-06-22T02:25:36;19.40;37.00
10192;DHT22;17580;50.850;4.504;2023-06-22T02:28:04;19.40;36.40
10192;DHT22;17580;50.850;4.504;2023-06-22T02:30:32;19.40;37.50
10192;DHT22;17580;50.850;4.504;2023-06-22T02:32:59;19.30;38.10
10192;DHT22;17580;50.850;4.504;2023-06-22T02:35:26;19.30;37.50
10192;DHT22;17580;50.850;4.504;2023-06-22T02:37:58;19.30;37.40
10192;DHT22;17580;50.850;4.504;2023-06-22T02:40:25;19.30;37.50
10192;DHT22;17580;50.850;4.504;2023-06-22T02:42:52;19.30;37.50
10192;DHT22;17580;50.850;4.504;2023-06-22T02:45:19;19.30;37.60
10192;DHT22;17580;50.850;4.504;2023-06-22T02:47:47;19.30;37.70
10192;DHT22;17580;50.850;4.504;2023-06-22T02:50:14;19.30;38.30
10192;DHT22;17580;50.850;4.504;2023-06-22T02:52:41;19.20;39.60
10192;DHT22;17580;50.850;4.504;2023-06-22T02:55:09;19.20;39.70
10192;DHT22;17580;50.850;4.504;2023-06-22T02:57:36;19.10;39.80
10192;DHT22;17580;50.850;4.504;2023-06-22T03:00:10;19.10;40.00
10192;DHT22;17580;50.850;4.504;2023-06-22T03:02:42;19.00;40.20
10192;DHT22;17580;50.850;4.504;2023-06-22T03:05:10;19.00;40.00
10192;DHT22;17580;50.850;4.504;2023-06-22T03:07:40;19.00;39.70
10192;DHT22;17580;50.850;4.504;2023-06-22T03:10:10;19.00;39.60
10192;DHT22;17580;50.850;4.504;2023-06-22T03:12:38;19.00;39.70
10192;DHT22;17580;50.850;4.504;2023-06-22T03:15:06;19.00;39.50
10192;DHT22;17580;50.850;4.504;2023-06-22T03:17:34;19.00;40.00
10192;DHT22;17580;50.850;4.504;2023-06-22T03:20:01;19.00;42.00
10192;DHT22;17580;50.850;4.504;2023-06-22T03:22:32;19.00;40.90
10192;DHT22;17580;50.850;4.504;2023-06-22T03:24:59;19.00;41.10
10192;DHT22;17580;50.850;4.504;2023-06-22T03:27:28;18.90;41.30
10192;DHT22;17580;50.850;4.504;2023-06-22T03:29:56;18.80;40.60
10192;DHT22;17580;50.850;4.504;2023-06-22T03:32:23;18.90;41.10
10192;DHT22;17580;50.850;4.504;2023-06-22T03:34:53;18.90;41.30
10192;DHT22;17580;50.850;4.504;2023-06-22T03:37:24;18.90;41.40
10192;DHT22;17580;50.850;4.504;2023-06-22T03:39:51;18.90;40.70
10192;DHT22;17580;50.850;4.504;2023-06-22T03:42:18;18.90;41.30
10192;DHT22;17580;50.850;4.504;2023-06-22T03:44:47;18.90;41.30
10192;DHT22;17580;50.850;4.504;2023-06-22T03:47:14;19.00;40.70
10192;DHT22;17580;50.850;4.504;2023-06-22T03:49:41;19.00;40.70
10192;DHT22;17580;50.850;4.504;2023-06-22T03:52:08;19.10;40.30
10192;DHT22;17580;50.850;4.504;2023-06-22T03:54:36;19.10;40.80
10192;DHT22;17580;50.850;4.504;2023-06-22T03:57:04;19.10;40.20
10192;DHT22;17580;50.850;4.504;2023-06-22T03:59:31;19.20;40.40
10192;DHT22;17580;50.850;4.504;2023-06-22T04:02:00;19.20;40.20
10192;DHT22;17580;50.850;4.504;2023-06-22T04:04:27;19.30;42.10
10192;DHT22;17580;50.850;4.504;2023-06-22T04:06:54;19.30;42.60
10192;DHT22;17580;50.850;4.504;2023-06-22T04:09:21;19.20;40.90
10192;DHT22;17580;50.850;4.504;2023-06-22T04:11:48;19.30;41.00
10192;DHT22;17580;50.850;4.504;2023-06-22T04:14:15;19.30;41.00
10192;DHT22;17580;50.850;4.504;2023-06-22T04:16:42;19.30;43.20
10192;DHT22;17580;50.850;4.504;2023-06-22T04:19:10;19.30;42.80
10192;DHT22;17580;50.850;4.504;2023-06-22T04:21:43;19.30;44.60
10192;DHT22;17580;50.850;4.504;2023-06-22T04:24:11;19.30;42.50
10192;DHT22;17580;50.850;4.504;2023-06-22T04:26:38;19.30;44.90
10192;DHT22;17580;50.850;4.504;2023-06-22T04:29:07;19.30;45.20
10192;DHT22;17580;50.850;4.504;2023-06-22T04:31:34;19.30;44.40
10192;DHT22;17580;50.850;4.504;2023-06-22T04:34:02;19.30;44.00
10192;DHT22;17580;50.850;4.504;2023-06-22T04:36:34;19.30;43.80
10192;DHT22;17580;50.850;4.504;2023-06-22T04:39:04;19.30;45.00
10192;DHT22;17580;50.850;4.504;2023-06-22T04:41:32;19.30;43.00
10192;DHT22;17580;50.850;4.504;2023-06-22T04:44:08;19.30;43.60
10192;DHT22;17580;50.850;4.504;2023-06-22T04:46:36;19.40;43.10
10192;DHT22;17580;50.850;4.504;2023-06-22T04:49:05;19.40;43.90
10192;DHT22;17580;50.850;4.504;2023-06-22T04:51:38;19.30;42.70
10192;DHT22;17580;50.850;4.504;2023-06-22T04:54:05;19.40;42.20
10192;DHT22;17580;50.850;4.504;2023-06-22T04:56:32;19.40;43.80
10192;DHT22;17580;50.850;4.504;2023-06-22T04:59:00;19.40;44.40
10192;DHT22;17580;50.850;4.504;2023-06-22T05:01:27;19.40;45.40
10192;DHT22;17580;50.850;4.504;2023-06-22T05:03:54;19.30;45.10
10192;DHT22;17580;50.850;4.504;2023-06-22T05:06:22;19.30;47.50
10192;DHT22;17580;50.850;4.504;2023-06-22T05:08:53;19.30;46.20
10192;DHT22;17580;50.850;4.504;2023-06-22T05:11:23;19.40;48.30
10192;DHT22;17580;50.850;4.504;2023-06-22T05:13:50;19.40;51.10
10192;DHT22;17580;50.850;4.504;2023-06-22T05:16:17;19.40;50.10
10192;DHT22;17580;50.850;4.504;2023-06-22T05:18:52;19.40;51.50
10192;DHT22;17580;50.850;4.504;2023-06-22T05:21:22;19.30;51.60
10192;DHT22;17580;50.850;4.504;2023-06-22T05:23:51;19.30;50.10
10192;DHT22;17580;50.850;4.504;2023-06-22T05:26:18;19.40;53.40
10192;DHT22;17580;50.850;4.504;2023-06-22T05:28:46;19.40;54.40
10192;DHT22;17580;50.850;4.504;2023-06-22T05:31:13;19.40;55.00
10192;DHT22;17580;50.850;4.504;2023-06-22T05:33:41;19.40;54.50
10192;DHT22;17580;50.850;4.504;2023-06-22T05:36:08;19.40;53.00
10192;DHT22;17580;50.850;4.504;2023-06-22T05:38:36;19.50;52.80
10192;DHT22;17580;50.850;4.504;2023-06-22T05:41:04;19.50;52.50
10192;DHT22;17580;50.850;4.504;2023-06-22T05:43:31;19.50;54.70
10192;DHT22;17580;50.850;4.504;2023-06-22T05:45:59;19.50;55.10
10192;DHT22;17580;50.850;4.504;2023-06-22T05:48:27;19.60;53.10
10192;DHT22;17580;50.850;4.504;2023-06-22T05:50:54;19.70;53.50
10192;DHT22;17580;50.850;4.504;2023-06-22T05:53:21;19.80;51.90
10192;DHT22;17580;50.850;4.504;2023-06-22T05:55:48;19.80;51.50
10192;DHT22;17580;50.850;4.504;2023-06-22T05:58:16;19.80;51.80
10192;DHT22;17580;50.850;4.504;2023-06-22T06:00:43;19.90;51.50
10192;DHT22;17580;50.850;4.504;2023-06-22T06:03:12;19.80;50.70
10192;DHT22;17580;50.850;4.504;2023-06-22T06:05:43;19.90;50.80
10192;DHT22;17580;50.850;4.504;2023-06-22T06:08:10;20.00;49.60
10192;DHT22;17580;50.850;4.504;2023-06-22T06:10:37;20.00;49.10
10192;DHT22;17580;50.850;4.504;2023-06-22T06:13:05;20.10;47.90
10192;DHT22;17580;50.850;4.504;2023-06-22T06:15:34;20.20;47.20
10192;DHT22;17580;50.850;4.504;2023-06-22T06:18:01;20.20;47.20
10192;DHT22;17580;50.850;4.504;2023-06-22T06:20:30;20.20;46.80
10192;DHT22;17580;50.850;4.504;2023-06-22T06:22:58;20.30;45.70
10192;DHT22;17580;50.850;4.504;2023-06-22T06:25:25;20.40;45.80
10192;DHT22;17580;50.850;4.504;2023-06-22T06:27:52;20.50;45.90
10192;DHT22;17580;50.850;4.504;2023-06-22T06:30:20;20.50;44.80
10192;DHT22;17580;50.850;4.504;2023-06-22T06:32:50;20.60;44.90
10192;DHT22;17580;50.850;4.504;2023-06-22T06:35:17;20.70;44.00
10192;DHT22;17580;50.850;4.504;2023-06-22T06:37:45;20.70;43.30
10192;DHT22;17580;50.850;4.504;2023-06-22T06:40:13;20.80;42.70
10192;DHT22;17580;50.850;4.504;2023-06-22T06:42:42;20.80;42.50
10192;DHT22;17580;50.850;4.504;2023-06-22T06:45:11;20.90;42.90
10192;DHT22;17580;50.850;4.504;2023-06-22T06:47:38;20.90;43.10
10192;DHT22;17580;50.850;4.504;2023-06-22T06:50:07;21.00;43.70
10192;DHT22;17580;50.850;4.504;2023-06-22T06:52:35;21.10;43.50
10192;DHT22;17580;50.850;4.504;2023-06-22T06:55:02;21.20;42.50
10192;DHT22;17580;50.850;4.504;2023-06-22T06:57:33;21.20;42.60
10192;DHT22;17580;50.850;4.504;2023-06-22T07:00:00;21.30;41.60
10192;DHT22;17580;50.850;4.504;2023-06-22T07:02:33;21.30;42.40
10192;DHT22;17580;50.850;4.504;2023-06-22T07:04:59;21.30;41.90
10192;DHT22;17580;50.850;4.504;2023-06-22T07:07:31;21.40;40.60
10192;DHT22;17580;50.850;4.504;2023-06-22T07:09:58;21.40;40.40
10192;DHT22;17580;50.850;4.504;2023-06-22T07:12:25;21.50;40.70
10192;DHT22;17580;50.850;4.504;2023-06-22T07:14:52;21.60;39.10
10192;DHT22;17580;50.850;4.504;2023-06-22T07:17:19;21.70;40.60
10192;DHT22;17580;50.850;4.504;2023-06-22T07:19:46;21.70;39.30
10192;DHT22;17580;50.850;4.504;2023-06-22T07:22:13;21.70;39.00
10192;DHT22;17580;50.850;4.504;2023-06-22T07:24:41;21.80;39.30
10192;DHT22;17580;50.850;4.504;2023-06-22T07:27:08;21.80;38.60
10192;DHT22;17580;50.850;4.504;2023-06-22T07:29:37;21.90;38.70
10192;DHT22;17580;50.850;4.504;2023-06-22T07:32:06;21.80;38.40
10192;DHT22;17580;50.850;4.504;2023-06-22T07:34:33;21.90;38.60
10192;DHT22;17580;50.850;4.504;2023-06-22T07:37:00;21.80;39.00
10192;DHT22;17580;50.850;4.504;2023-06-22T07:39:27;21.90;38.60
10192;DHT22;17580;50.850;4.504;2023-06-22T07:41:55;21.80;39.50
10192;DHT22;17580;50.850;4.504;2023-06-22T07:44:24;21.70;39.80
10192;DHT22;17580;50.850;4.504;2023-06-22T07:46:51;21.70;39.50
10192;DHT22;17580;50.850;4.504;2023-06-22T07:49:18;21.60;39.80
10192;DHT22;17580;50.850;4.504;2023-06-22T07:51:45;21.50;39.50
10192;DHT22;17580;50.850;4.504;2023-06-22T07:54:12;21.40;39.20
10192;DHT22;17580;50.850;4.504;2023-06-22T07:56:41;21.30;39.70
10192;DHT22;17580;50.850;4.504;2023-06-22T07:59:10;21.30;40.30
10192;DHT22;17580;50.850;4.504;2023-06-22T08:01:37;21.20;39.90
10192;DHT22;17580;50.850;4.504;2023-06-22T08:04:04;21.30;39.70
10192;DHT22;17580;50.850;4.504;2023-06-22T08:06:32;21.30;40.30
10192;DHT22;17580;50.850;4.504;2023-06-22T08:08:59;21.20;40.10
10192;DHT22;17580;50.850;4.504;2023-06-22T08:11:25;21.20;40.80
10192;DHT22;17580;50.850;4.504;2023-06-22T08:13:53;21.20;41.40
10192;DHT22;17580;50.850;4.504;2023-06-22T08:16:22;21.20;41.10
10192;DHT22;17580;50.850;4.504;2023-06-22T08:18:49;21.10;40.80
10192;DHT22;17580;50.850;4.504;2023-06-22T08:21:16;21.10;41.70
10192;DHT22;17580;50.850;4.504;2023-06-22T08:23:43;21.10;41.30
10192;DHT22;17580;50.850;4.504;2023-06-22T08:26:10;21.00;40.70
10192;DHT22;17580;50.850;4.504;2023-06-22T08:28:37;21.10;41.30
10192;DHT22;17580;50.850;4.504;2023-06-22T08:31:04;21.10;41.30
10192;DHT22;17580;50.850;4.504;2023-06-22T08:33:33;21.00;41.80
10192;DHT22;17580;50.850;4.504;2023-06-22T08:36:00;21.00;41.20
10192;DHT22;17580;50.850;4.504;2023-06-22T08:38:27;21.10;41.40
10192;DHT22;17580;50.850;4.504;2023-06-22T08:40:54;21.10;41.60
10192;DHT22;17580;50.850;4.504;2023-06-22T08:43:20;21.10;41.30
10192;DHT22;17580;50.850;4.504;2023-06-22T08:45:47;21.10;41.30
10192;DHT22;17580;50.850;4.504;2023-06-22T08:48:14;21.10;41.60
10192;DHT22;17580;50.850;4.504;2023-06-22T08:50:43;21.10;41.40
10192;DHT22;17580;50.850;4.504;2023-06-22T08:53:10;21.10;41.30
10192;DHT22;17580;50.850;4.504;2023-06-22T08:55:37;21.10;41.40
10192;DHT22;17580;50.850;4.504;2023-06-22T08:58:04;21.10;41.10
10192;DHT22;17580;50.850;4.504;2023-06-22T09:00:32;21.10;41.50
10192;DHT22;17580;50.850;4.504;2023-06-22T09:03:00;21.20;41.70
10192;DHT22;17580;50.850;4.504;2023-06-22T09:05:27;21.20;41.40
10192;DHT22;17580;50.850;4.504;2023-06-22T09:07:56;21.10;41.30
10192;DHT22;17580;50.850;4.504;2023-06-22T09:10:24;21.10;41.20
10192;DHT22;17580;50.850;4.504;2023-06-22T09:12:51;21.10;41.50
10192;DHT22;17580;50.850;4.504;2023-06-22T09:15:18;21.10;40.80
10192;DHT22;17580;50.850;4.504;2023-06-22T09:17:45;21.00;41.20
10192;DHT22;17580;50.850;4.504;2023-06-22T09:20:13;21.00;41.70
10192;DHT22;17580;50.850;4.504;2023-06-22T09:22:40;20.90;42.70
10192;DHT22;17580;50.850;4.504;2023-06-22T09:25:09;20.90;42.80
10192;DHT22;17580;50.850;4.504;2023-06-22T09:27:36;20.90;45.60
10192;DHT22;17580;50.850;4.504;2023-06-22T09:30:04;20.80;52.90
10192;DHT22;17580;50.850;4.504;2023-06-22T09:32:32;20.50;57.20
10192;DHT22;17580;50.850;4.504;2023-06-22T09:35:02;20.30;60.30
10192;DHT22;17580;50.850;4.504;2023-06-22T09:37:29;20.00;65.40
10192;DHT22;17580;50.850;4.504;2023-06-22T09:39:56;19.70;68.40
10192;DHT22;17580;50.850;4.504;2023-06-22T09:42:24;19.40;66.50
10192;DHT22;17580;50.850;4.504;2023-06-22T09:44:51;19.20;67.30
10192;DHT22;17580;50.850;4.504;2023-06-22T09:47:18;19.10;68.60
10192;DHT22;17580;50.850;4.504;2023-06-22T09:49:45;18.90;73.40
10192;DHT22;17580;50.850;4.504;2023-06-22T09:52:12;18.90;74.50
10192;DHT22;17580;50.850;4.504;2023-06-22T09:54:39;18.70;73.60
10192;DHT22;17580;50.850;4.504;2023-06-22T09:57:06;18.80;84.50
10192;DHT22;17580;50.850;4.504;2023-06-22T09:59:34;18.70;82.70
10192;DHT22;17580;50.850;4.504;2023-06-22T10:02:01;18.70;80.70
10192;DHT22;17580;50.850;4.504;2023-06-22T10:04:28;18.60;79.50
10192;DHT22;17580;50.850;4.504;2023-06-22T10:06:55;18.50;81.10
10192;DHT22;17580;50.850;4.504;2023-06-22T10:09:22;18.60;84.90
10192;DHT22;17580;50.850;4.504;2023-06-22T10:11:49;18.60;83.50
10192;DHT22;17580;50.850;4.504;2023-06-22T10:14:16;18.50;82.80
10192;DHT22;17580;50.850;4.504;2023-06-22T10:16:44;18.60;84.00
10192;DHT22;17580;50.850;4.504;2023-06-22T10:19:11;18.60;86.40
10192;DHT22;17580;50.850;4.504;2023-06-22T10:21:38;18.60;84.70
10192;DHT22;17580;50.850;4.504;2023-06-22T10:24:06;18.70;85.10
10192;DHT22;17580;50.850;4.504;2023-06-22T10:26:33;18.80;90.70
10192;DHT22;17580;50.850;4.504;2023-06-22T10:29:00;18.90;90.40
10192;DHT22;17580;50.850;4.504;2023-06-22T10:31:27;18.90;90.10
10192;DHT22;17580;50.850;4.504;2023-06-22T10:33:56;19.00;91.40
10192;DHT22;17580;50.850;4.504;2023-06-22T10:36:23;19.00;90.50
10192;DHT22;17580;50.850;4.504;2023-06-22T10:38:50;19.00;91.30
10192;DHT22;17580;50.850;4.504;2023-06-22T10:41:18;19.00;91.40
10192;DHT22;17580;50.850;4.504;2023-06-22T10:43:45;19.00;91.50
10192;DHT22;17580;50.850;4.504;2023-06-22T10:46:12;19.00;89.90
10192;DHT22;17580;50.850;4.504;2023-06-22T10:48:39;19.00;91.50
10192;DHT22;17580;50.850;4.504;2023-06-22T10:51:07;19.00;90.50
10192;DHT22;17580;50.850;4.504;2023-06-22T10:53:34;19.00;91.40
10192;DHT22;17580;50.850;4.504;2023-06-22T10:56:01;19.00;90.50
10192;DHT22;17580;50.850;4.504;2023-06-22T10:58:28;19.00;90.20
10192;DHT22;17580;50.850;4.504;2023-06-22T11:00:55;19.00;91.60
10192;DHT22;17580;50.850;4.504;2023-06-22T11:03:22;19.00;91.40
10192;DHT22;17580;50.850;4.504;2023-06-22T11:05:49;19.00;89.80
10192;DHT22;17580;50.850;4.504;2023-06-22T11:08:17;19.00;90.80
10192;DHT22;17580;50.850;4.504;2023-06-22T11:10:44;19.00;90.90
10192;DHT22;17580;50.850;4.504;2023-06-22T11:13:11;19.00;90.40
10192;DHT22;17580;50.850;4.504;2023-06-22T11:15:38;19.00;90.00
10192;DHT22;17580;50.850;4.504;2023-06-22T11:18:05;19.10;91.80
10192;DHT22;17580;50.850;4.504;2023-06-22T11:20:33;19.20;91.20
10192;DHT22;17580;50.850;4.504;2023-06-22T11:23:04;19.20;90.50
10192;DHT22;17580;50.850;4.504;2023-06-22T11:25:33;19.20;89.00
10192;DHT22;17580;50.850;4.504;2023-06-22T11:28:02;19.30;91.40
10192;DHT22;17580;50.850;4.504;2023-06-22T11:30:29;19.30;91.60
10192;DHT22;17580;50.850;4.504;2023-06-22T11:32:57;19.20;90.50
10192;DHT22;17580;50.850;4.504;2023-06-22T11:35:24;19.30;92.10
10192;DHT22;17580;50.850;4.504;2023-06-22T11:37:51;19.20;92.10
10192;DHT22;17580;50.850;4.504;2023-06-22T11:40:18;19.20;90.60
10192;DHT22;17580;50.850;4.504;2023-06-22T11:42:46;19.20;89.30
10192;DHT22;17580;50.850;4.504;2023-06-22T11:45:13;19.20;91.50
10192;DHT22;17580;50.850;4.504;2023-06-22T11:47:40;19.10;90.90
10192;DHT22;17580;50.850;4.504;2023-06-22T11:50:08;19.20;91.90
10192;DHT22;17580;50.850;4.504;2023-06-22T11:52:35;19.20;91.40
10192;DHT22;17580;50.850;4.504;2023-06-22T11:55:03;19.20;92.50
10192;DHT22;17580;50.850;4.504;2023-06-22T11:57:33;19.20;90.50
10192;DHT22;17580;50.850;4.504;2023-06-22T12:00:02;19.20;92.20
10192;DHT22;17580;50.850;4.504;2023-06-22T12:02:32;19.20;92.10
10192;DHT22;17580;50.850;4.504;2023-06-22T12:04:59;19.00;93.80
10192;DHT22;17580;50.850;4.504;2023-06-22T12:07:30;18.90;95.10
10192;DHT22;17580;50.850;4.504;2023-06-22T12:09:57;18.90;94.70
10192;DHT22;17580;50.850;4.504;2023-06-22T12:12:24;18.80;95.40
10192;DHT22;17580;50.850;4.504;2023-06-22T12:14:51;18.80;95.20
10192;DHT22;17580;50.850;4.504;2023-06-22T12:17:19;18.70;95.50
10192;DHT22;17580;50.850;4.504;2023-06-22T12:19:46;18.70;95.90
10192;DHT22;17580;50.850;4.504;2023-06-22T12:22:13;18.70;95.80
10192;DHT22;17580;50.850;4.504;2023-06-22T12:24:40;18.60;95.10
10192;DHT22;17580;50.850;4.504;2023-06-22T12:27:07;18.60;96.10
10192;DHT22;17580;50.850;4.504;2023-06-22T12:29:35;18.70;96.60
10192;DHT22;17580;50.850;4.504;2023-06-22T12:32:03;18.60;95.40
10192;DHT22;17580;50.850;4.504;2023-06-22T12:34:31;18.60;97.40
10192;DHT22;17580;50.850;4.504;2023-06-22T12:36:58;18.60;97.10
10192;DHT22;17580;50.850;4.504;2023-06-22T12:39:25;18.60;96.20
10192;DHT22;17580;50.850;4.504;2023-06-22T12:41:52;18.60;96.80
10192;DHT22;17580;50.850;4.504;2023-06-22T12:44:19;18.60;97.20
10192;DHT22;17580;50.850;4.504;2023-06-22T12:46:46;18.60;96.80
10192;DHT22;17580;50.850;4.504;2023-06-22T12:49:13;18.70;97.70
10192;DHT22;17580;50.850;4.504;2023-06-22T12:51:42;18.60;96.90
10192;DHT22;17580;50.850;4.504;2023-06-22T12:54:10;18.60;96.90
10192;DHT22;17580;50.850;4.504;2023-06-22T12:56:37;18.60;96.10
10192;DHT22;17580;50.850;4.504;2023-06-22T12:59:04;18.60;95.80
10192;DHT22;17580;50.850;4.504;2023-06-22T13:01:32;18.60;97.40
10192;DHT22;17580;50.850;4.504;2023-06-22T13:03:59;18.70;97.50
10192;DHT22;17580;50.850;4.504;2023-06-22T13:06:26;18.70;97.00
10192;DHT22;17580;50.850;4.504;2023-06-22T13:08:54;18.70;97.30
10192;DHT22;17580;50.850;4.504;2023-06-22T13:11:21;18.70;96.30
10192;DHT22;17580;50.850;4.504;2023-06-22T13:13:48;18.80;97.20
10192;DHT22;17580;50.850;4.504;2023-06-22T13:16:15;18.80;96.40
10192;DHT22;17580;50.850;4.504;2023-06-22T13:18:42;18.70;95.40
10192;DHT22;17580;50.850;4.504;2023-06-22T13:21:09;18.70;95.10
10192;DHT22;17580;50.850;4.504;2023-06-22T13:23:36;18.70;95.30
10192;DHT22;17580;50.850;4.504;2023-06-22T13:26:04;18.70;95.50
10192;DHT22;17580;50.850;4.504;2023-06-22T13:28:31;18.70;95.40
10192;DHT22;17580;50.850;4.504;2023-06-22T13:30:58;18.70;95.50
10192;DHT22;17580;50.850;4.504;2023-06-22T13:33:25;18.80;95.90
10192;DHT22;17580;50.850;4.504;2023-06-22T13:35:52;18.80;95.50
10192;DHT22;17580;50.850;4.504;2023-06-22T13:38:19;18.80;95.90
10192;DHT22;17580;50.850;4.504;2023-06-22T13:40:48;18.80;95.80
10192;DHT22;17580;50.850;4.504;2023-06-22T13:43:16;18.80;95.60
10192;DHT22;17580;50.850;4.504;2023-06-22T13:45:44;18.70;94.90
10192;DHT22;17580;50.850;4.504;2023-06-22T13:48:11;18.70;94.90
10192;DHT22;17580;50.850;4.504;2023-06-22T13:50:38;18.70;95.10
10192;DHT22;17580;50.850;4.504;2023-06-22T13:53:05;18.80;95.30
10192;DHT22;17580;50.850;4.504;2023-06-22T13:55:32;18.80;95.00
10192;DHT22;17580;50.850;4.504;2023-06-22T13:57:59;18.80;95.30
10192;DHT22;17580;50.850;4.504;2023-06-22T14:00:27;18.80;94.50
10192;DHT22;17580;50.850;4.504;2023-06-22T14:02:54;18.80;93.90
10192;DHT22;17580;50.850;4.504;2023-06-22T14:05:21;18.80;93.60
10192;DHT22;17580;50.850;4.504;2023-06-22T14:07:48;18.80;93.70
10192;DHT22;17580;50.850;4.504;2023-06-22T14:10:16;18.80;93.40
10192;DHT22;17580;50.850;4.504;2023-06-22T14:12:43;18.90;93.40
10192;DHT22;17580;50.850;4.504;2023-06-22T14:15:10;18.90;92.30
10192;DHT22;17580;50.850;4.504;2023-06-22T14:17:38;18.90;92.40
10192;DHT22;17580;50.850;4.504;2023-06-22T14:20:06;18.80;92.60
10192;DHT22;17580;50.850;4.504;2023-06-22T14:22:34;18.90;93.10
10192;DHT22;17580;50.850;4.504;2023-06-22T14:25:02;18.80;93.00
10192;DHT22;17580;50.850;4.504;2023-06-22T14:27:29;18.90;92.70
10192;DHT22;17580;50.850;4.504;2023-06-22T14:29:56;18.90;92.60
10192;DHT22;17580;50.850;4.504;2023-06-22T14:32:23;18.90;92.80
10192;DHT22;17580;50.850;4.504;2023-06-22T14:34:52;18.90;93.00
10192;DHT22;17580;50.850;4.504;2023-06-22T14:37:19;18.90;92.70
10192;DHT22;17580;50.850;4.504;2023-06-22T14:39:45;18.80;92.70
10192;DHT22;17580;50.850;4.504;2023-06-22T14:42:12;18.80;92.40
10192;DHT22;17580;50.850;4.504;2023-06-22T14:44:39;18.70;92.90
10192;DHT22;17580;50.850;4.504;2023-06-22T14:47:07;18.70;93.10
10192;DHT22;17580;50.850;4.504;2023-06-22T14:49:34;18.60;93.40
10192;DHT22;17580;50.850;4.504;2023-06-22T14:52:03;18.70;93.60
10192;DHT22;17580;50.850;4.504;2023-06-22T14:54:31;18.70;93.70
10192;DHT22;17580;50.850;4.504;2023-06-22T14:56:58;18.70;93.00
10192;DHT22;17580;50.850;4.504;2023-06-22T14:59:25;18.80;93.20
10192;DHT22;17580;50.850;4.504;2023-06-22T15:01:52;18.80;93.50
10192;DHT22;17580;50.850;4.504;2023-06-22T15:04:19;18.90;93.30
10192;DHT22;17580;50.850;4.504;2023-06-22T15:06:46;18.90;93.00
10192;DHT22;17580;50.850;4.504;2023-06-22T15:09:15;19.00;93.60
10192;DHT22;17580;50.850;4.504;2023-06-22T15:11:41;19.10;92.50
10192;DHT22;17580;50.850;4.504;2023-06-22T15:14:08;19.10;92.80
10192;DHT22;17580;50.850;4.504;2023-06-22T15:16:35;19.10;92.30
10192;DHT22;17580;50.850;4.504;2023-06-22T15:19:02;19.20;92.70
10192;DHT22;17580;50.850;4.504;2023-06-22T15:21:29;19.20;91.90
10192;DHT22;17580;50.850;4.504;2023-06-22T15:23:57;19.10;92.40
10192;DHT22;17580;50.850;4.504;2023-06-22T15:26:25;19.20;91.70
10192;DHT22;17580;50.850;4.504;2023-06-22T15:28:52;19.20;91.60
10192;DHT22;17580;50.850;4.504;2023-06-22T15:31:19;19.20;91.80
10192;DHT22;17580;50.850;4.504;2023-06-22T15:33:46;19.20;92.40